Rechercher aéroport 
image banner adimage banner adimage banner ad
image banner ad

F34 - Firebaugh

Situé à Firebaugh, United States

ICAO - F34, IATA -

Données fournies par Airmate  

Information générale

Coordonnées: N36°51'36" W120°27'52"
Élévation : 157 feet MSL.
Variation magnétique : 16° East
Voir autres Aéroports à California

Données opérationnelles

Special qualification required
Heure actuelle UTC:
Heure actuelle locale:
Météo à : KMAE - Madera Muni ( 34 km )
METAR: KMAE 251253Z AUTO 28004KT 10SM CLR 19/11 A2988 RMK AO2 SLP114 T01940111
Voir NOTAMs / SUP AIP / TFR affectant cet aéroport [VIEW]
Fréquences de communication: [VIEW]

Pistes:

Identifiant RWYQFULongueur (ft)Largeur (ft)SurfaceLDA (ft)
12140°310260ASPH
30320°310260ASPH

Coordonnées de l'aéroport

Adresse: Firebaugh United States

Vue satellite de F34